sensor_id;sensor_type;location;lat;lon;timestamp;P1;durP1;ratioP1;P2;durP2;ratioP2
20383;SDS011;46458;50.966;7.002;2023-04-02T00:06:40;13.00;;;9.60;;
20383;SDS011;46458;50.966;7.002;2023-04-02T00:12:13;14.80;;;10.00;;
20383;SDS011;46458;50.966;7.002;2023-04-02T00:14:46;13.13;;;9.30;;
20383;SDS011;46458;50.966;7.002;2023-04-02T00:17:17;10.87;;;8.63;;
20383;SDS011;46458;50.966;7.002;2023-04-02T00:19:48;13.07;;;8.57;;
20383;SDS011;46458;50.966;7.002;2023-04-02T00:22:24;15.60;;;10.20;;
20383;SDS011;46458;50.966;7.002;2023-04-02T00:24:59;13.70;;;10.07;;
20383;SDS011;46458;50.966;7.002;2023-04-02T00:27:30;14.53;;;10.70;;
20383;SDS011;46458;50.966;7.002;2023-04-02T00:29:59;17.17;;;11.47;;
20383;SDS011;46458;50.966;7.002;2023-04-02T00:32:30;20.07;;;13.77;;
20383;SDS011;46458;50.966;7.002;2023-04-02T00:35:03;19.57;;;13.50;;
20383;SDS011;46458;50.966;7.002;2023-04-02T00:37:37;21.40;;;13.83;;
20383;SDS011;46458;50.966;7.002;2023-04-02T00:40:13;16.63;;;12.17;;
20383;SDS011;46458;50.966;7.002;2023-04-02T00:42:47;16.63;;;11.63;;
20383;SDS011;46458;50.966;7.002;2023-04-02T00:45:21;12.33;;;8.83;;
20383;SDS011;46458;50.966;7.002;2023-04-02T00:47:53;12.27;;;9.33;;
20383;SDS011;46458;50.966;7.002;2023-04-02T00:50:26;13.47;;;9.47;;
20383;SDS011;46458;50.966;7.002;2023-04-02T00:53:02;13.17;;;9.70;;
20383;SDS011;46458;50.966;7.002;2023-04-02T00:55:39;11.27;;;9.17;;
20383;SDS011;46458;50.966;7.002;2023-04-02T00:58:12;7.10;;;5.60;;
20383;SDS011;46458;50.966;7.002;2023-04-02T01:00:47;7.23;;;5.23;;
20383;SDS011;46458;50.966;7.002;2023-04-02T01:03:25;4.13;;;3.07;;
20383;SDS011;46458;50.966;7.002;2023-04-02T01:05:59;2.80;;;2.23;;
20383;SDS011;46458;50.966;7.002;2023-04-02T01:08:41;2.50;;;1.90;;
20383;SDS011;46458;50.966;7.002;2023-04-02T01:11:26;2.60;;;1.90;;
20383;SDS011;46458;50.966;7.002;2023-04-02T01:14:15;1.80;;;1.70;;
20383;SDS011;46458;50.966;7.002;2023-04-02T01:16:51;2.23;;;2.03;;
20383;SDS011;46458;50.966;7.002;2023-04-02T01:19:32;1.90;;;1.70;;
20383;SDS011;46458;50.966;7.002;2023-04-02T01:22:24;2.20;;;2.00;;
20383;SDS011;46458;50.966;7.002;2023-04-02T01:24:59;2.77;;;2.20;;
20383;SDS011;46458;50.966;7.002;2023-04-02T01:27:31;2.60;;;2.33;;
20383;SDS011;46458;50.966;7.002;2023-04-02T01:30:09;2.83;;;2.50;;
20383;SDS011;46458;50.966;7.002;2023-04-02T01:32:40;3.47;;;2.27;;
20383;SDS011;46458;50.966;7.002;2023-04-02T01:35:15;3.53;;;2.13;;
20383;SDS011;46458;50.966;7.002;2023-04-02T01:37:45;2.87;;;2.37;;
20383;SDS011;46458;50.966;7.002;2023-04-02T01:40:24;2.50;;;2.30;;
20383;SDS011;46458;50.966;7.002;2023-04-02T01:43:04;4.63;;;2.60;;
20383;SDS011;46458;50.966;7.002;2023-04-02T01:45:41;2.00;;;1.87;;
20383;SDS011;46458;50.966;7.002;2023-04-02T01:48:12;3.43;;;2.33;;
20383;SDS011;46458;50.966;7.002;2023-04-02T01:50:45;2.20;;;2.00;;
20383;SDS011;46458;50.966;7.002;2023-04-02T01:53:17;2.00;;;1.90;;
20383;SDS011;46458;50.966;7.002;2023-04-02T01:55:49;2.17;;;1.97;;
20383;SDS011;46458;50.966;7.002;2023-04-02T01:58:20;2.73;;;1.80;;
20383;SDS011;46458;50.966;7.002;2023-04-02T02:00:56;2.43;;;1.60;;
20383;SDS011;46458;50.966;7.002;2023-04-02T02:03:29;2.03;;;1.70;;
20383;SDS011;46458;50.966;7.002;2023-04-02T02:06:01;2.77;;;1.60;;
20383;SDS011;46458;50.966;7.002;2023-04-02T02:08:35;1.90;;;1.67;;
20383;SDS011;46458;50.966;7.002;2023-04-02T02:11:12;1.47;;;1.37;;
20383;SDS011;46458;50.966;7.002;2023-04-02T02:13:46;1.60;;;1.37;;
20383;SDS011;46458;50.966;7.002;2023-04-02T02:16:19;1.47;;;1.30;;
20383;SDS011;46458;50.966;7.002;2023-04-02T02:18:52;2.20;;;1.43;;
20383;SDS011;46458;50.966;7.002;2023-04-02T02:21:27;1.37;;;1.27;;
20383;SDS011;46458;50.966;7.002;2023-04-02T02:24:06;1.77;;;1.57;;
20383;SDS011;46458;50.966;7.002;2023-04-02T02:26:44;1.60;;;1.40;;
20383;SDS011;46458;50.966;7.002;2023-04-02T02:29:17;1.57;;;1.47;;
20383;SDS011;46458;50.966;7.002;2023-04-02T02:31:52;2.17;;;1.80;;
20383;SDS011;46458;50.966;7.002;2023-04-02T02:34:23;2.13;;;1.73;;
20383;SDS011;46458;50.966;7.002;2023-04-02T02:36:59;2.10;;;1.60;;
20383;SDS011;46458;50.966;7.002;2023-04-02T02:39:32;1.67;;;1.57;;
20383;SDS011;46458;50.966;7.002;2023-04-02T02:42:07;2.10;;;1.70;;
20383;SDS011;46458;50.966;7.002;2023-04-02T02:44:42;1.97;;;1.77;;
20383;SDS011;46458;50.966;7.002;2023-04-02T02:47:17;2.30;;;2.10;;
20383;SDS011;46458;50.966;7.002;2023-04-02T02:49:54;2.30;;;1.90;;
20383;SDS011;46458;50.966;7.002;2023-04-02T02:52:27;2.20;;;2.00;;
20383;SDS011;46458;50.966;7.002;2023-04-02T02:55:05;2.20;;;1.60;;
20383;SDS011;46458;50.966;7.002;2023-04-02T02:57:45;2.63;;;2.00;;
20383;SDS011;46458;50.966;7.002;2023-04-02T03:00:17;1.90;;;1.70;;
20383;SDS011;46458;50.966;7.002;2023-04-02T03:02:51;2.30;;;2.10;;
20383;SDS011;46458;50.966;7.002;2023-04-02T03:05:26;2.10;;;1.90;;
20383;SDS011;46458;50.966;7.002;2023-04-02T03:08:03;2.37;;;2.00;;
20383;SDS011;46458;50.966;7.002;2023-04-02T03:10:38;1.83;;;1.73;;
20383;SDS011;46458;50.966;7.002;2023-04-02T03:13:14;2.23;;;2.00;;
20383;SDS011;46458;50.966;7.002;2023-04-02T03:15:50;2.60;;;2.40;;
20383;SDS011;46458;50.966;7.002;2023-04-02T03:18:31;2.63;;;2.43;;
20383;SDS011;46458;50.966;7.002;2023-04-02T03:21:08;3.13;;;2.83;;
20383;SDS011;46458;50.966;7.002;2023-04-02T03:23:46;2.43;;;2.23;;
20383;SDS011;46458;50.966;7.002;2023-04-02T03:26:20;2.57;;;2.37;;
20383;SDS011;46458;50.966;7.002;2023-04-02T03:28:59;2.80;;;2.50;;
20383;SDS011;46458;50.966;7.002;2023-04-02T03:31:32;2.70;;;2.50;;
20383;SDS011;46458;50.966;7.002;2023-04-02T03:34:10;2.90;;;2.60;;
20383;SDS011;46458;50.966;7.002;2023-04-02T03:36:46;3.40;;;2.80;;
20383;SDS011;46458;50.966;7.002;2023-04-02T03:39:25;2.60;;;2.40;;
20383;SDS011;46458;50.966;7.002;2023-04-02T03:42:01;2.53;;;2.33;;
20383;SDS011;46458;50.966;7.002;2023-04-02T03:44:36;3.47;;;3.17;;
20383;SDS011;46458;50.966;7.002;2023-04-02T03:47:12;3.73;;;3.33;;
20383;SDS011;46458;50.966;7.002;2023-04-02T03:49:48;3.60;;;3.20;;
20383;SDS011;46458;50.966;7.002;2023-04-02T03:52:24;3.63;;;2.93;;
20383;SDS011;46458;50.966;7.002;2023-04-02T03:54:58;4.20;;;3.63;;
20383;SDS011;46458;50.966;7.002;2023-04-02T03:57:42;4.60;;;4.00;;
20383;SDS011;46458;50.966;7.002;2023-04-02T04:00:20;4.67;;;4.03;;
20383;SDS011;46458;50.966;7.002;2023-04-02T04:02:57;5.13;;;4.07;;
20383;SDS011;46458;50.966;7.002;2023-04-02T04:05:33;6.30;;;4.37;;
20383;SDS011;46458;50.966;7.002;2023-04-02T04:08:11;4.73;;;4.27;;
20383;SDS011;46458;50.966;7.002;2023-04-02T04:10:45;5.17;;;4.57;;
20383;SDS011;46458;50.966;7.002;2023-04-02T04:13:20;4.53;;;4.13;;
20383;SDS011;46458;50.966;7.002;2023-04-02T04:15:56;5.27;;;4.67;;
20383;SDS011;46458;50.966;7.002;2023-04-02T04:18:32;4.87;;;4.17;;
20383;SDS011;46458;50.966;7.002;2023-04-02T04:21:18;5.23;;;4.10;;
20383;SDS011;46458;50.966;7.002;2023-04-02T04:24:00;4.70;;;4.20;;
20383;SDS011;46458;50.966;7.002;2023-04-02T04:26:38;4.60;;;4.00;;
20383;SDS011;46458;50.966;7.002;2023-04-02T04:29:31;4.00;;;3.60;;
20383;SDS011;46458;50.966;7.002;2023-04-02T04:32:17;4.40;;;3.83;;
20383;SDS011;46458;50.966;7.002;2023-04-02T04:35:03;4.00;;;3.60;;
20383;SDS011;46458;50.966;7.002;2023-04-02T04:37:40;4.10;;;3.70;;
20383;SDS011;46458;50.966;7.002;2023-04-02T04:40:15;4.50;;;3.67;;
20383;SDS011;46458;50.966;7.002;2023-04-02T04:42:55;3.63;;;3.30;;
20383;SDS011;46458;50.966;7.002;2023-04-02T04:45:33;3.90;;;3.43;;
20383;SDS011;46458;50.966;7.002;2023-04-02T04:48:12;3.90;;;3.50;;
20383;SDS011;46458;50.966;7.002;2023-04-02T04:50:47;3.93;;;3.30;;
20383;SDS011;46458;50.966;7.002;2023-04-02T04:53:22;4.03;;;3.63;;
20383;SDS011;46458;50.966;7.002;2023-04-02T04:55:54;3.80;;;3.40;;
20383;SDS011;46458;50.966;7.002;2023-04-02T04:58:31;3.97;;;3.53;;
20383;SDS011;46458;50.966;7.002;2023-04-02T05:01:04;4.23;;;3.80;;
20383;SDS011;46458;50.966;7.002;2023-04-02T05:03:39;4.40;;;3.60;;
20383;SDS011;46458;50.966;7.002;2023-04-02T05:06:16;4.13;;;3.73;;
20383;SDS011;46458;50.966;7.002;2023-04-02T05:08:54;4.10;;;3.70;;
20383;SDS011;46458;50.966;7.002;2023-04-02T05:11:29;4.20;;;3.80;;
20383;SDS011;46458;50.966;7.002;2023-04-02T05:14:04;4.27;;;3.87;;
20383;SDS011;46458;50.966;7.002;2023-04-02T05:16:39;4.20;;;3.50;;
20383;SDS011;46458;50.966;7.002;2023-04-02T05:19:16;3.83;;;3.43;;
20383;SDS011;46458;50.966;7.002;2023-04-02T05:21:53;4.67;;;3.70;;
20383;SDS011;46458;50.966;7.002;2023-04-02T05:24:40;6.13;;;4.07;;
20383;SDS011;46458;50.966;7.002;2023-04-02T05:27:19;3.80;;;3.50;;
20383;SDS011;46458;50.966;7.002;2023-04-02T05:29:57;3.80;;;3.50;;
20383;SDS011;46458;50.966;7.002;2023-04-02T05:32:33;4.13;;;3.60;;
20383;SDS011;46458;50.966;7.002;2023-04-02T05:35:05;4.47;;;4.07;;
20383;SDS011;46458;50.966;7.002;2023-04-02T05:37:41;4.40;;;4.00;;
20383;SDS011;46458;50.966;7.002;2023-04-02T05:40:18;4.70;;;4.20;;
20383;SDS011;46458;50.966;7.002;2023-04-02T05:42:51;4.20;;;3.80;;
20383;SDS011;46458;50.966;7.002;2023-04-02T05:45:26;5.23;;;4.27;;
20383;SDS011;46458;50.966;7.002;2023-04-02T05:48:01;4.47;;;4.07;;
20383;SDS011;46458;50.966;7.002;2023-04-02T05:50:39;4.93;;;4.43;;
20383;SDS011;46458;50.966;7.002;2023-04-02T05:53:16;4.87;;;4.37;;
20383;SDS011;46458;50.966;7.002;2023-04-02T05:55:55;5.30;;;4.60;;
20383;SDS011;46458;50.966;7.002;2023-04-02T05:58:32;8.03;;;4.03;;
20383;SDS011;46458;50.966;7.002;2023-04-02T06:01:18;4.57;;;4.00;;
20383;SDS011;46458;50.966;7.002;2023-04-02T06:03:58;4.87;;;3.93;;
20383;SDS011;46458;50.966;7.002;2023-04-02T06:06:41;4.60;;;4.07;;
20383;SDS011;46458;50.966;7.002;2023-04-02T06:09:16;5.10;;;4.60;;
20383;SDS011;46458;50.966;7.002;2023-04-02T06:11:53;11.53;;;7.77;;
20383;SDS011;46458;50.966;7.002;2023-04-02T06:14:29;9.30;;;6.37;;
20383;SDS011;46458;50.966;7.002;2023-04-02T06:17:04;9.60;;;7.00;;
20383;SDS011;46458;50.966;7.002;2023-04-02T06:19:35;5.03;;;3.97;;
20383;SDS011;46458;50.966;7.002;2023-04-02T06:22:13;4.10;;;3.70;;
20383;SDS011;46458;50.966;7.002;2023-04-02T06:24:49;4.77;;;3.70;;
20383;SDS011;46458;50.966;7.002;2023-04-02T06:27:25;4.70;;;3.93;;
20383;SDS011;46458;50.966;7.002;2023-04-02T06:29:58;4.23;;;3.73;;
20383;SDS011;46458;50.966;7.002;2023-04-02T06:32:32;4.50;;;3.70;;
20383;SDS011;46458;50.966;7.002;2023-04-02T06:35:01;5.07;;;4.50;;
20383;SDS011;46458;50.966;7.002;2023-04-02T06:37:31;5.27;;;4.30;;
20383;SDS011;46458;50.966;7.002;2023-04-02T06:40:32;4.70;;;4.30;;
20383;SDS011;46458;50.966;7.002;2023-04-02T06:43:25;5.67;;;4.67;;
20383;SDS011;46458;50.966;7.002;2023-04-02T06:46:14;5.17;;;4.10;;
20383;SDS011;46458;50.966;7.002;2023-04-02T06:49:03;5.43;;;4.20;;
20383;SDS011;46458;50.966;7.002;2023-04-02T06:51:40;5.07;;;4.57;;
20383;SDS011;46458;50.966;7.002;2023-04-02T06:54:13;5.93;;;4.90;;
20383;SDS011;46458;50.966;7.002;2023-04-02T06:56:48;5.27;;;4.33;;
20383;SDS011;46458;50.966;7.002;2023-04-02T06:59:27;6.27;;;5.20;;
20383;SDS011;46458;50.966;7.002;2023-04-02T07:01:59;5.17;;;4.67;;
20383;SDS011;46458;50.966;7.002;2023-04-02T07:04:31;5.33;;;4.67;;
20383;SDS011;46458;50.966;7.002;2023-04-02T07:07:01;7.67;;;4.90;;
20383;SDS011;46458;50.966;7.002;2023-04-02T07:09:33;6.23;;;5.33;;
20383;SDS011;46458;50.966;7.002;2023-04-02T07:12:09;6.33;;;4.97;;
20383;SDS011;46458;50.966;7.002;2023-04-02T07:14:42;5.83;;;5.07;;
20383;SDS011;46458;50.966;7.002;2023-04-02T07:17:13;8.67;;;5.43;;
20383;SDS011;46458;50.966;7.002;2023-04-02T07:19:43;6.13;;;5.10;;
20383;SDS011;46458;50.966;7.002;2023-04-02T07:22:18;6.50;;;5.30;;
20383;SDS011;46458;50.966;7.002;2023-04-02T07:24:54;7.60;;;5.67;;
20383;SDS011;46458;50.966;7.002;2023-04-02T07:27:23;8.00;;;5.73;;
20383;SDS011;46458;50.966;7.002;2023-04-02T07:29:54;6.07;;;5.20;;
20383;SDS011;46458;50.966;7.002;2023-04-02T07:32:23;5.90;;;4.80;;
20383;SDS011;46458;50.966;7.002;2023-04-02T07:34:52;7.23;;;5.40;;
20383;SDS011;46458;50.966;7.002;2023-04-02T07:37:23;9.00;;;5.73;;
20383;SDS011;46458;50.966;7.002;2023-04-02T07:39:55;6.20;;;4.70;;
20383;SDS011;46458;50.966;7.002;2023-04-02T07:42:24;7.10;;;4.90;;
20383;SDS011;46458;50.966;7.002;2023-04-02T07:44:56;6.13;;;5.30;;
20383;SDS011;46458;50.966;7.002;2023-04-02T07:47:24;7.37;;;4.97;;
20383;SDS011;46458;50.966;7.002;2023-04-02T07:49:53;5.80;;;4.90;;
20383;SDS011;46458;50.966;7.002;2023-04-02T07:52:22;6.33;;;4.87;;
20383;SDS011;46458;50.966;7.002;2023-04-02T07:54:51;6.57;;;4.80;;
20383;SDS011;46458;50.966;7.002;2023-04-02T07:57:20;6.13;;;4.93;;
20383;SDS011;46458;50.966;7.002;2023-04-02T07:59:48;6.77;;;4.97;;
20383;SDS011;46458;50.966;7.002;2023-04-02T08:02:23;8.43;;;5.50;;
20383;SDS011;46458;50.966;7.002;2023-04-02T08:04:55;6.83;;;5.27;;
20383;SDS011;46458;50.966;7.002;2023-04-02T08:07:26;8.87;;;5.20;;
20383;SDS011;46458;50.966;7.002;2023-04-02T08:09:55;7.23;;;5.43;;
20383;SDS011;46458;50.966;7.002;2023-04-02T08:12:24;6.73;;;5.57;;
20383;SDS011;46458;50.966;7.002;2023-04-02T08:14:53;5.50;;;4.90;;
20383;SDS011;46458;50.966;7.002;2023-04-02T08:17:25;7.43;;;5.23;;
20383;SDS011;46458;50.966;7.002;2023-04-02T08:19:55;6.70;;;5.23;;
20383;SDS011;46458;50.966;7.002;2023-04-02T08:22:31;5.93;;;5.33;;
20383;SDS011;46458;50.966;7.002;2023-04-02T08:25:00;9.60;;;5.83;;
20383;SDS011;46458;50.966;7.002;2023-04-02T08:27:28;6.37;;;5.10;;
20383;SDS011;46458;50.966;7.002;2023-04-02T08:29:57;9.70;;;5.40;;
20383;SDS011;46458;50.966;7.002;2023-04-02T08:32:39;10.27;;;5.60;;
20383;SDS011;46458;50.966;7.002;2023-04-02T08:35:09;8.27;;;5.43;;
20383;SDS011;46458;50.966;7.002;2023-04-02T08:37:40;7.67;;;6.00;;
20383;SDS011;46458;50.966;7.002;2023-04-02T08:40:15;7.87;;;5.47;;
20383;SDS011;46458;50.966;7.002;2023-04-02T08:42:51;7.67;;;5.63;;
20383;SDS011;46458;50.966;7.002;2023-04-02T08:45:46;8.17;;;5.70;;
20383;SDS011;46458;50.966;7.002;2023-04-02T08:48:29;7.63;;;6.00;;
20383;SDS011;46458;50.966;7.002;2023-04-02T08:50:59;8.67;;;6.33;;
20383;SDS011;46458;50.966;7.002;2023-04-02T08:53:31;8.67;;;6.00;;
20383;SDS011;46458;50.966;7.002;2023-04-02T08:56:03;10.77;;;6.53;;
20383;SDS011;46458;50.966;7.002;2023-04-02T08:58:42;10.07;;;7.00;;
20383;SDS011;46458;50.966;7.002;2023-04-02T09:01:16;8.20;;;6.50;;
20383;SDS011;46458;50.966;7.002;2023-04-02T09:03:54;7.37;;;6.23;;
20383;SDS011;46458;50.966;7.002;2023-04-02T09:06:25;8.70;;;6.70;;
20383;SDS011;46458;50.966;7.002;2023-04-02T09:08:55;9.67;;;6.77;;
20383;SDS011;46458;50.966;7.002;2023-04-02T09:11:26;10.70;;;7.40;;
20383;SDS011;46458;50.966;7.002;2023-04-02T09:14:03;6.37;;;5.53;;
20383;SDS011;46458;50.966;7.002;2023-04-02T09:16:40;7.73;;;5.37;;
20383;SDS011;46458;50.966;7.002;2023-04-02T09:19:18;7.67;;;6.40;;
20383;SDS011;46458;50.966;7.002;2023-04-02T09:21:53;7.20;;;5.40;;
20383;SDS011;46458;50.966;7.002;2023-04-02T09:24:28;7.43;;;5.70;;
20383;SDS011;46458;50.966;7.002;2023-04-02T09:26:57;13.77;;;9.27;;
20383;SDS011;46458;50.966;7.002;2023-04-02T09:29:34;8.17;;;5.50;;
20383;SDS011;46458;50.966;7.002;2023-04-02T09:32:14;7.33;;;5.80;;
20383;SDS011;46458;50.966;7.002;2023-04-02T09:35:06;7.83;;;5.00;;
20383;SDS011;46458;50.966;7.002;2023-04-02T09:37:37;8.67;;;6.17;;
20383;SDS011;46458;50.966;7.002;2023-04-02T09:43:10;9.23;;;5.90;;
20383;SDS011;46458;50.966;7.002;2023-04-02T09:45:41;7.90;;;5.17;;
20383;SDS011;46458;50.966;7.002;2023-04-02T09:48:15;6.70;;;5.37;;
20383;SDS011;46458;50.966;7.002;2023-04-02T09:50:58;8.50;;;4.80;;
20383;SDS011;46458;50.966;7.002;2023-04-02T09:53:38;7.77;;;5.30;;
20383;SDS011;46458;50.966;7.002;2023-04-02T09:56:11;8.53;;;6.03;;
20383;SDS011;46458;50.966;7.002;2023-04-02T09:58:43;7.63;;;5.80;;
20383;SDS011;46458;50.966;7.002;2023-04-02T10:01:36;9.00;;;5.40;;
20383;SDS011;46458;50.966;7.002;2023-04-02T10:07:06;7.70;;;5.90;;
20383;SDS011;46458;50.966;7.002;2023-04-02T10:09:35;7.93;;;6.17;;
20383;SDS011;46458;50.966;7.002;2023-04-02T10:12:05;9.17;;;5.70;;
20383;SDS011;46458;50.966;7.002;2023-04-02T10:14:40;9.80;;;6.20;;
20383;SDS011;46458;50.966;7.002;2023-04-02T10:17:13;8.97;;;7.03;;
20383;SDS011;46458;50.966;7.002;2023-04-02T10:19:46;12.60;;;6.90;;
20383;SDS011;46458;50.966;7.002;2023-04-02T10:22:21;8.57;;;6.73;;
20383;SDS011;46458;50.966;7.002;2023-04-02T10:24:50;6.63;;;5.53;;
20383;SDS011;46458;50.966;7.002;2023-04-02T10:27:26;8.87;;;6.47;;
20383;SDS011;46458;50.966;7.002;2023-04-02T10:30:04;8.97;;;6.53;;
20383;SDS011;46458;50.966;7.002;2023-04-02T10:32:40;8.57;;;6.00;;
20383;SDS011;46458;50.966;7.002;2023-04-02T10:35:15;9.30;;;6.23;;
20383;SDS011;46458;50.966;7.002;2023-04-02T10:38:06;8.07;;;5.70;;
20383;SDS011;46458;50.966;7.002;2023-04-02T10:40:52;8.00;;;6.13;;
20383;SDS011;46458;50.966;7.002;2023-04-02T10:43:34;8.17;;;6.40;;
20383;SDS011;46458;50.966;7.002;2023-04-02T10:46:29;8.63;;;5.90;;
20383;SDS011;46458;50.966;7.002;2023-04-02T10:49:06;8.40;;;5.90;;
20383;SDS011;46458;50.966;7.002;2023-04-02T10:51:45;8.40;;;5.73;;
20383;SDS011;46458;50.966;7.002;2023-04-02T10:57:25;11.03;;;5.47;;
20383;SDS011;46458;50.966;7.002;2023-04-02T11:00:07;7.57;;;5.73;;
20383;SDS011;46458;50.966;7.002;2023-04-02T11:02:45;7.33;;;4.93;;
20383;SDS011;46458;50.966;7.002;2023-04-02T11:05:19;6.27;;;5.67;;
20383;SDS011;46458;50.966;7.002;2023-04-02T11:08:01;6.67;;;5.27;;
20383;SDS011;46458;50.966;7.002;2023-04-02T11:10:37;5.80;;;5.00;;
20383;SDS011;46458;50.966;7.002;2023-04-02T11:13:13;6.53;;;5.10;;
20383;SDS011;46458;50.966;7.002;2023-04-02T11:15:49;5.10;;;4.53;;
20383;SDS011;46458;50.966;7.002;2023-04-02T11:18:23;6.17;;;5.57;;
20383;SDS011;46458;50.966;7.002;2023-04-02T11:20:59;8.93;;;5.43;;
20383;SDS011;46458;50.966;7.002;2023-04-02T11:26:30;10.53;;;6.40;;
20383;SDS011;46458;50.966;7.002;2023-04-02T11:29:04;8.10;;;6.00;;
20383;SDS011;46458;50.966;7.002;2023-04-02T11:31:46;6.67;;;5.37;;
20383;SDS011;46458;50.966;7.002;2023-04-02T11:37:28;7.00;;;5.40;;
20383;SDS011;46458;50.966;7.002;2023-04-02T11:40:06;7.27;;;5.43;;
20383;SDS011;46458;50.966;7.002;2023-04-02T11:52:34;5.90;;;4.70;;
20383;SDS011;46458;50.966;7.002;2023-04-02T11:55:18;6.00;;;5.07;;
20383;SDS011;46458;50.966;7.002;2023-04-02T12:01:16;11.10;;;6.47;;
20383;SDS011;46458;50.966;7.002;2023-04-02T12:07:16;6.87;;;5.27;;
20383;SDS011;46458;50.966;7.002;2023-04-02T12:10:01;8.93;;;5.80;;
20383;SDS011;46458;50.966;7.002;2023-04-02T12:12:36;7.20;;;5.20;;
20383;SDS011;46458;50.966;7.002;2023-04-02T12:15:23;7.57;;;5.73;;
20383;SDS011;46458;50.966;7.002;2023-04-02T12:18:09;10.53;;;6.73;;
20383;SDS011;46458;50.966;7.002;2023-04-02T12:20:44;7.60;;;5.30;;
20383;SDS011;46458;50.966;7.002;2023-04-02T12:23:18;5.87;;;5.37;;
20383;SDS011;46458;50.966;7.002;2023-04-02T12:25:53;8.80;;;5.57;;
20383;SDS011;46458;50.966;7.002;2023-04-02T12:28:24;7.83;;;6.07;;
20383;SDS011;46458;50.966;7.002;2023-04-02T12:31:02;11.43;;;7.17;;
20383;SDS011;46458;50.966;7.002;2023-04-02T12:33:39;7.13;;;5.70;;
20383;SDS011;46458;50.966;7.002;2023-04-02T12:36:16;5.47;;;4.97;;
20383;SDS011;46458;50.966;7.002;2023-04-02T12:38:49;6.70;;;4.77;;
20383;SDS011;46458;50.966;7.002;2023-04-02T12:41:21;7.33;;;5.60;;
20383;SDS011;46458;50.966;7.002;2023-04-02T12:43:57;6.13;;;5.00;;
20383;SDS011;46458;50.966;7.002;2023-04-02T12:46:37;6.00;;;5.23;;
20383;SDS011;46458;50.966;7.002;2023-04-02T12:49:11;6.97;;;5.33;;
20383;SDS011;46458;50.966;7.002;2023-04-02T12:51:49;7.30;;;5.50;;
20383;SDS011;46458;50.966;7.002;2023-04-02T12:54:19;5.97;;;5.33;;
20383;SDS011;46458;50.966;7.002;2023-04-02T12:56:48;6.87;;;5.23;;
20383;SDS011;46458;50.966;7.002;2023-04-02T12:59:32;8.50;;;5.63;;
20383;SDS011;46458;50.966;7.002;2023-04-02T13:02:14;6.33;;;5.70;;
20383;SDS011;46458;50.966;7.002;2023-04-02T13:04:50;6.90;;;5.33;;
20383;SDS011;46458;50.966;7.002;2023-04-02T13:07:25;5.50;;;4.90;;
20383;SDS011;46458;50.966;7.002;2023-04-02T13:09:56;6.93;;;5.17;;
20383;SDS011;46458;50.966;7.002;2023-04-02T13:12:30;7.10;;;5.37;;
20383;SDS011;46458;50.966;7.002;2023-04-02T13:15:01;8.03;;;5.37;;
20383;SDS011;46458;50.966;7.002;2023-04-02T13:17:40;7.83;;;5.10;;
20383;SDS011;46458;50.966;7.002;2023-04-02T13:20:29;8.80;;;4.93;;
20383;SDS011;46458;50.966;7.002;2023-04-02T13:23:01;7.30;;;4.93;;
20383;SDS011;46458;50.966;7.002;2023-04-02T13:25:50;5.13;;;4.63;;
20383;SDS011;46458;50.966;7.002;2023-04-02T13:28:19;6.60;;;4.63;;
20383;SDS011;46458;50.966;7.002;2023-04-02T13:30:48;5.50;;;4.30;;
20383;SDS011;46458;50.966;7.002;2023-04-02T13:33:17;5.80;;;4.13;;
20383;SDS011;46458;50.966;7.002;2023-04-02T13:35:51;5.80;;;4.67;;
20383;SDS011;46458;50.966;7.002;2023-04-02T13:38:20;4.63;;;3.93;;
20383;SDS011;46458;50.966;7.002;2023-04-02T13:40:49;4.73;;;3.83;;
20383;SDS011;46458;50.966;7.002;2023-04-02T13:43:20;4.90;;;3.90;;
20383;SDS011;46458;50.966;7.002;2023-04-02T13:45:50;4.20;;;3.80;;
20383;SDS011;46458;50.966;7.002;2023-04-02T13:48:21;4.97;;;4.10;;
20383;SDS011;46458;50.966;7.002;2023-04-02T13:50:56;5.30;;;4.13;;
20383;SDS011;46458;50.966;7.002;2023-04-02T13:53:26;7.13;;;3.97;;
20383;SDS011;46458;50.966;7.002;2023-04-02T13:56:00;6.87;;;4.03;;
20383;SDS011;46458;50.966;7.002;2023-04-02T13:58:30;4.37;;;3.83;;
20383;SDS011;46458;50.966;7.002;2023-04-02T14:00:59;4.00;;;3.60;;
20383;SDS011;46458;50.966;7.002;2023-04-02T14:03:28;7.27;;;4.10;;
20383;SDS011;46458;50.966;7.002;2023-04-02T14:06:01;5.47;;;3.97;;
20383;SDS011;46458;50.966;7.002;2023-04-02T14:08:36;4.53;;;3.70;;
20383;SDS011;46458;50.966;7.002;2023-04-02T14:11:20;6.83;;;4.07;;
20383;SDS011;46458;50.966;7.002;2023-04-02T14:14:05;4.40;;;3.70;;
20383;SDS011;46458;50.966;7.002;2023-04-02T14:17:02;5.83;;;4.17;;
20383;SDS011;46458;50.966;7.002;2023-04-02T14:19:43;7.50;;;4.63;;
20383;SDS011;46458;50.966;7.002;2023-04-02T14:22:32;4.73;;;3.70;;
20383;SDS011;46458;50.966;7.002;2023-04-02T14:25:09;6.03;;;3.53;;
20383;SDS011;46458;50.966;7.002;2023-04-02T14:27:47;4.93;;;3.87;;
20383;SDS011;46458;50.966;7.002;2023-04-02T14:30:25;5.90;;;4.27;;
20383;SDS011;46458;50.966;7.002;2023-04-02T14:33:02;4.47;;;3.70;;
20383;SDS011;46458;50.966;7.002;2023-04-02T14:35:36;5.50;;;3.70;;
20383;SDS011;46458;50.966;7.002;2023-04-02T14:38:14;5.57;;;3.33;;
20383;SDS011;46458;50.966;7.002;2023-04-02T14:40:47;4.53;;;3.03;;
20383;SDS011;46458;50.966;7.002;2023-04-02T14:43:19;3.90;;;3.30;;
20383;SDS011;46458;50.966;7.002;2023-04-02T14:45:54;3.60;;;3.00;;
20383;SDS011;46458;50.966;7.002;2023-04-02T14:48:31;3.13;;;2.83;;
20383;SDS011;46458;50.966;7.002;2023-04-02T14:51:10;4.07;;;3.50;;
20383;SDS011;46458;50.966;7.002;2023-04-02T14:53:50;5.77;;;4.00;;
20383;SDS011;46458;50.966;7.002;2023-04-02T14:56:27;3.70;;;3.10;;
20383;SDS011;46458;50.966;7.002;2023-04-02T14:59:03;4.70;;;3.03;;
20383;SDS011;46458;50.966;7.002;2023-04-02T15:01:44;4.20;;;3.03;;
20383;SDS011;46458;50.966;7.002;2023-04-02T15:04:17;5.73;;;3.10;;
20383;SDS011;46458;50.966;7.002;2023-04-02T15:06:52;5.10;;;3.23;;
20383;SDS011;46458;50.966;7.002;2023-04-02T15:09:31;3.97;;;3.20;;
20383;SDS011;46458;50.966;7.002;2023-04-02T15:12:06;5.57;;;4.10;;
20383;SDS011;46458;50.966;7.002;2023-04-02T15:14:40;5.10;;;3.83;;
20383;SDS011;46458;50.966;7.002;2023-04-02T15:17:14;5.73;;;4.17;;
20383;SDS011;46458;50.966;7.002;2023-04-02T15:19:44;6.43;;;4.10;;
20383;SDS011;46458;50.966;7.002;2023-04-02T15:22:17;5.73;;;3.97;;
20383;SDS011;46458;50.966;7.002;2023-04-02T15:25:04;4.70;;;3.67;;
20383;SDS011;46458;50.966;7.002;2023-04-02T15:27:46;4.53;;;3.97;;
20383;SDS011;46458;50.966;7.002;2023-04-02T15:30:29;5.77;;;4.20;;
20383;SDS011;46458;50.966;7.002;2023-04-02T15:36:02;5.00;;;3.67;;
20383;SDS011;46458;50.966;7.002;2023-04-02T15:38:55;5.57;;;3.93;;
20383;SDS011;46458;50.966;7.002;2023-04-02T15:41:34;4.63;;;3.80;;
20383;SDS011;46458;50.966;7.002;2023-04-02T15:44:08;6.90;;;4.80;;
20383;SDS011;46458;50.966;7.002;2023-04-02T15:46:43;4.90;;;4.10;;
20383;SDS011;46458;50.966;7.002;2023-04-02T15:49:25;3.90;;;3.50;;
20383;SDS011;46458;50.966;7.002;2023-04-02T15:52:06;4.27;;;3.67;;
20383;SDS011;46458;50.966;7.002;2023-04-02T15:54:58;5.73;;;3.70;;
20383;SDS011;46458;50.966;7.002;2023-04-02T15:57:48;5.00;;;4.43;;
20383;SDS011;46458;50.966;7.002;2023-04-02T16:00:39;4.90;;;4.23;;
20383;SDS011;46458;50.966;7.002;2023-04-02T16:03:24;4.37;;;3.93;;
20383;SDS011;46458;50.966;7.002;2023-04-02T16:06:10;3.93;;;3.30;;
20383;SDS011;46458;50.966;7.002;2023-04-02T16:09:06;4.37;;;3.50;;
20383;SDS011;46458;50.966;7.002;2023-04-02T16:11:45;4.10;;;3.73;;
20383;SDS011;46458;50.966;7.002;2023-04-02T16:14:23;3.80;;;3.40;;
20383;SDS011;46458;50.966;7.002;2023-04-02T16:16:54;4.43;;;3.60;;
20383;SDS011;46458;50.966;7.002;2023-04-02T16:19:32;3.50;;;3.20;;
20383;SDS011;46458;50.966;7.002;2023-04-02T16:22:04;9.60;;;3.57;;